Terminal Aerodrome Forecast
Issued by NWS

Home | Current Version | Previous Version | Text Only | Print | Product List | Glossary On
Versions: 1 2 3 4 5 6 7 8 9 10 11 12 13 14 15 16 17 18 19 20 21 22 23 24 25 26 27 28 29 30 31 32 33
000
FTUS43 KDTX 271100
TAFYIP
TAF
KYIP 271120Z 2712/2812 03006KT P6SM BKN022
     FM271500 35006KT P6SM BKN035 BKN120
     FM271800 32007KT P6SM SCT040 BKN120
     FM272300 03003KT P6SM SKC=

USA.gov is the U.S. government's official web portal to all federal, state and local government web resources and services.